sensor_id;sensor_type;location;lat;lon;timestamp;P1;durP1;ratioP1;P2;durP2;ratioP2
33740;SDS011;20065;48.380;10.892;2022-10-31T00:00:47;29.10;;;17.00;;
33740;SDS011;20065;48.380;10.892;2022-10-31T00:03:34;27.30;;;14.98;;
33740;SDS011;20065;48.380;10.892;2022-10-31T00:06:20;23.97;;;14.33;;
33740;SDS011;20065;48.380;10.892;2022-10-31T00:09:06;31.67;;;15.30;;
33740;SDS011;20065;48.380;10.892;2022-10-31T00:11:54;25.90;;;14.40;;
33740;SDS011;20065;48.380;10.892;2022-10-31T00:14:40;25.60;;;15.00;;
33740;SDS011;20065;48.380;10.892;2022-10-31T00:17:26;24.90;;;15.53;;
33740;SDS011;20065;48.380;10.892;2022-10-31T00:20:12;22.93;;;13.70;;
33740;SDS011;20065;48.380;10.892;2022-10-31T00:22:59;29.57;;;14.23;;
33740;SDS011;20065;48.380;10.892;2022-10-31T00:25:46;24.50;;;13.50;;
33740;SDS011;20065;48.380;10.892;2022-10-31T00:28:32;23.50;;;12.67;;
33740;SDS011;20065;48.380;10.892;2022-10-31T00:31:18;25.07;;;14.00;;
33740;SDS011;20065;48.380;10.892;2022-10-31T00:34:07;22.90;;;13.10;;
33740;SDS011;20065;48.380;10.892;2022-10-31T00:36:54;23.23;;;13.33;;
33740;SDS011;20065;48.380;10.892;2022-10-31T00:39:41;22.93;;;13.17;;
33740;SDS011;20065;48.380;10.892;2022-10-31T00:42:27;15.90;;;11.20;;
33740;SDS011;20065;48.380;10.892;2022-10-31T00:45:15;21.47;;;12.53;;
33740;SDS011;20065;48.380;10.892;2022-10-31T00:48:01;24.30;;;11.30;;
33740;SDS011;20065;48.380;10.892;2022-10-31T00:50:47;16.63;;;11.40;;
33740;SDS011;20065;48.380;10.892;2022-10-31T00:53:34;19.47;;;11.97;;
33740;SDS011;20065;48.380;10.892;2022-10-31T00:56:20;22.53;;;12.67;;
33740;SDS011;20065;48.380;10.892;2022-10-31T00:59:06;21.63;;;12.50;;
33740;SDS011;20065;48.380;10.892;2022-10-31T01:01:52;24.77;;;12.30;;
33740;SDS011;20065;48.380;10.892;2022-10-31T01:04:40;36.30;;;15.13;;
33740;SDS011;20065;48.380;10.892;2022-10-31T01:07:26;23.97;;;12.03;;
33740;SDS011;20065;48.380;10.892;2022-10-31T01:10:12;21.83;;;13.15;;
33740;SDS011;20065;48.380;10.892;2022-10-31T01:12:58;25.83;;;13.73;;
33740;SDS011;20065;48.380;10.892;2022-10-31T01:15:44;23.53;;;13.40;;
33740;SDS011;20065;48.380;10.892;2022-10-31T01:18:30;27.37;;;13.10;;
33740;SDS011;20065;48.380;10.892;2022-10-31T01:21:21;25.10;;;12.67;;
33740;SDS011;20065;48.380;10.892;2022-10-31T01:24:08;24.10;;;12.40;;
33740;SDS011;20065;48.380;10.892;2022-10-31T01:26:57;22.20;;;12.90;;
33740;SDS011;20065;48.380;10.892;2022-10-31T01:29:43;18.20;;;12.07;;
33740;SDS011;20065;48.380;10.892;2022-10-31T01:32:29;21.63;;;11.50;;
33740;SDS011;20065;48.380;10.892;2022-10-31T01:35:18;17.90;;;11.53;;
33740;SDS011;20065;48.380;10.892;2022-10-31T01:38:04;18.90;;;10.98;;
33740;SDS011;20065;48.380;10.892;2022-10-31T01:40:50;20.73;;;10.67;;
33740;SDS011;20065;48.380;10.892;2022-10-31T01:46:33;19.80;;;10.43;;
33740;SDS011;20065;48.380;10.892;2022-10-31T01:49:24;25.23;;;11.90;;
33740;SDS011;20065;48.380;10.892;2022-10-31T01:52:24;17.80;;;11.55;;
33740;SDS011;20065;48.380;10.892;2022-10-31T01:55:18;21.47;;;12.83;;
33740;SDS011;20065;48.380;10.892;2022-10-31T01:58:19;19.58;;;10.75;;
33740;SDS011;20065;48.380;10.892;2022-10-31T02:01:09;20.93;;;11.93;;
33740;SDS011;20065;48.380;10.892;2022-10-31T02:03:55;23.90;;;11.82;;
33740;SDS011;20065;48.380;10.892;2022-10-31T02:06:44;18.67;;;11.05;;
33740;SDS011;20065;48.380;10.892;2022-10-31T02:09:44;23.15;;;12.07;;
33740;SDS011;20065;48.380;10.892;2022-10-31T02:12:31;18.45;;;11.45;;
33740;SDS011;20065;48.380;10.892;2022-10-31T02:15:21;20.33;;;11.43;;
33740;SDS011;20065;48.380;10.892;2022-10-31T02:18:08;20.27;;;10.52;;
33740;SDS011;20065;48.380;10.892;2022-10-31T02:27:24;23.10;;;10.40;;
33740;SDS011;20065;48.380;10.892;2022-10-31T02:36:58;17.83;;;9.57;;
33740;SDS011;20065;48.380;10.892;2022-10-31T02:40:39;17.38;;;9.25;;
33740;SDS011;20065;48.380;10.892;2022-10-31T02:43:43;20.15;;;9.88;;
33740;SDS011;20065;48.380;10.892;2022-10-31T02:50:15;21.83;;;10.30;;
33740;SDS011;20065;48.380;10.892;2022-10-31T02:52:51;16.60;;;9.40;;
33740;SDS011;20065;48.380;10.892;2022-10-31T02:55:42;17.58;;;9.50;;
33740;SDS011;20065;48.380;10.892;2022-10-31T02:58:35;14.30;;;9.30;;
33740;SDS011;20065;48.380;10.892;2022-10-31T03:01:34;18.83;;;8.70;;
33740;SDS011;20065;48.380;10.892;2022-10-31T03:11:04;14.77;;;8.67;;
33740;SDS011;20065;48.380;10.892;2022-10-31T03:13:57;16.07;;;8.87;;
33740;SDS011;20065;48.380;10.892;2022-10-31T03:16:53;12.70;;;7.93;;
33740;SDS011;20065;48.380;10.892;2022-10-31T03:19:43;16.90;;;10.82;;
33740;SDS011;20065;48.380;10.892;2022-10-31T03:22:33;13.75;;;8.93;;
33740;SDS011;20065;48.380;10.892;2022-10-31T03:25:21;14.45;;;8.77;;
33740;SDS011;20065;48.380;10.892;2022-10-31T03:28:10;15.85;;;8.90;;
33740;SDS011;20065;48.380;10.892;2022-10-31T03:31:00;16.35;;;9.63;;
33740;SDS011;20065;48.380;10.892;2022-10-31T03:33:48;14.35;;;8.82;;
33740;SDS011;20065;48.380;10.892;2022-10-31T03:36:37;16.65;;;9.05;;
33740;SDS011;20065;48.380;10.892;2022-10-31T03:39:25;16.70;;;9.52;;
33740;SDS011;20065;48.380;10.892;2022-10-31T03:42:14;20.27;;;9.00;;
33740;SDS011;20065;48.380;10.892;2022-10-31T03:45:08;12.07;;;7.38;;
33740;SDS011;20065;48.380;10.892;2022-10-31T03:48:00;16.60;;;9.57;;
33740;SDS011;20065;48.380;10.892;2022-10-31T03:50:56;16.88;;;9.25;;
33740;SDS011;20065;48.380;10.892;2022-10-31T03:54:01;18.02;;;8.52;;
33740;SDS011;20065;48.380;10.892;2022-10-31T03:57:03;19.75;;;9.32;;
33740;SDS011;20065;48.380;10.892;2022-10-31T03:59:56;15.98;;;9.13;;
33740;SDS011;20065;48.380;10.892;2022-10-31T04:03:09;14.73;;;8.85;;
33740;SDS011;20065;48.380;10.892;2022-10-31T04:06:18;19.05;;;9.75;;
33740;SDS011;20065;48.380;10.892;2022-10-31T04:09:06;18.33;;;9.00;;
33740;SDS011;20065;48.380;10.892;2022-10-31T04:11:55;13.85;;;8.40;;
33740;SDS011;20065;48.380;10.892;2022-10-31T04:14:54;21.13;;;8.75;;
33740;SDS011;20065;48.380;10.892;2022-10-31T04:17:42;14.45;;;8.52;;
33740;SDS011;20065;48.380;10.892;2022-10-31T04:20:33;16.17;;;8.43;;
33740;SDS011;20065;48.380;10.892;2022-10-31T04:23:25;13.93;;;9.13;;
33740;SDS011;20065;48.380;10.892;2022-10-31T04:26:12;16.88;;;9.88;;
33740;SDS011;20065;48.380;10.892;2022-10-31T04:28:58;14.02;;;9.65;;
33740;SDS011;20065;48.380;10.892;2022-10-31T04:31:46;17.25;;;9.15;;
33740;SDS011;20065;48.380;10.892;2022-10-31T04:34:32;17.80;;;8.93;;
33740;SDS011;20065;48.380;10.892;2022-10-31T04:37:18;19.10;;;9.82;;
33740;SDS011;20065;48.380;10.892;2022-10-31T04:40:07;16.48;;;9.50;;
33740;SDS011;20065;48.380;10.892;2022-10-31T04:43:12;13.82;;;8.50;;
33740;SDS011;20065;48.380;10.892;2022-10-31T04:45:59;12.95;;;9.43;;
33740;SDS011;20065;48.380;10.892;2022-10-31T04:48:45;21.00;;;8.63;;
33740;SDS011;20065;48.380;10.892;2022-10-31T04:51:31;17.27;;;9.45;;
33740;SDS011;20065;48.380;10.892;2022-10-31T04:54:17;14.40;;;8.75;;
33740;SDS011;20065;48.380;10.892;2022-10-31T04:57:29;21.75;;;10.45;;
33740;SDS011;20065;48.380;10.892;2022-10-31T05:00:20;20.60;;;8.90;;
33740;SDS011;20065;48.380;10.892;2022-10-31T05:03:08;19.30;;;10.60;;
33740;SDS011;20065;48.380;10.892;2022-10-31T05:05:54;17.00;;;9.48;;
33740;SDS011;20065;48.380;10.892;2022-10-31T05:08:41;22.85;;;9.35;;
33740;SDS011;20065;48.380;10.892;2022-10-31T05:11:28;14.55;;;8.65;;
33740;SDS011;20065;48.380;10.892;2022-10-31T05:14:21;15.43;;;9.18;;
33740;SDS011;20065;48.380;10.892;2022-10-31T05:17:25;20.25;;;9.52;;
33740;SDS011;20065;48.380;10.892;2022-10-31T05:20:32;18.88;;;11.00;;
33740;SDS011;20065;48.380;10.892;2022-10-31T05:23:27;23.00;;;11.10;;
33740;SDS011;20065;48.380;10.892;2022-10-31T05:26:13;16.88;;;10.40;;
33740;SDS011;20065;48.380;10.892;2022-10-31T05:28:59;19.00;;;10.10;;
33740;SDS011;20065;48.380;10.892;2022-10-31T05:31:47;16.05;;;9.23;;
33740;SDS011;20065;48.380;10.892;2022-10-31T05:34:53;15.32;;;8.80;;
33740;SDS011;20065;48.380;10.892;2022-10-31T05:37:58;16.95;;;9.43;;
33740;SDS011;20065;48.380;10.892;2022-10-31T05:40:44;24.92;;;9.70;;
33740;SDS011;20065;48.380;10.892;2022-10-31T05:43:31;23.35;;;10.48;;
33740;SDS011;20065;48.380;10.892;2022-10-31T05:46:19;19.30;;;9.43;;
33740;SDS011;20065;48.380;10.892;2022-10-31T05:49:23;15.95;;;9.60;;
33740;SDS011;20065;48.380;10.892;2022-10-31T05:52:42;16.88;;;8.40;;
33740;SDS011;20065;48.380;10.892;2022-10-31T05:55:48;17.48;;;8.95;;
33740;SDS011;20065;48.380;10.892;2022-10-31T05:58:38;15.90;;;8.98;;
33740;SDS011;20065;48.380;10.892;2022-10-31T06:01:25;21.35;;;9.98;;
33740;SDS011;20065;48.380;10.892;2022-10-31T06:04:11;18.65;;;9.30;;
33740;SDS011;20065;48.380;10.892;2022-10-31T06:06:58;20.48;;;9.55;;
33740;SDS011;20065;48.380;10.892;2022-10-31T06:09:44;15.02;;;9.20;;
33740;SDS011;20065;48.380;10.892;2022-10-31T06:12:30;20.35;;;9.77;;
33740;SDS011;20065;48.380;10.892;2022-10-31T06:15:46;17.85;;;10.05;;
33740;SDS011;20065;48.380;10.892;2022-10-31T06:18:32;16.20;;;9.68;;
33740;SDS011;20065;48.380;10.892;2022-10-31T06:21:19;18.90;;;9.63;;
33740;SDS011;20065;48.380;10.892;2022-10-31T06:24:07;17.70;;;9.93;;
33740;SDS011;20065;48.380;10.892;2022-10-31T06:27:12;19.92;;;9.48;;
33740;SDS011;20065;48.380;10.892;2022-10-31T06:29:58;16.27;;;8.90;;
33740;SDS011;20065;48.380;10.892;2022-10-31T06:32:51;17.63;;;9.27;;
33740;SDS011;20065;48.380;10.892;2022-10-31T06:35:44;19.40;;;8.50;;
33740;SDS011;20065;48.380;10.892;2022-10-31T06:38:31;18.40;;;9.63;;
33740;SDS011;20065;48.380;10.892;2022-10-31T06:41:18;18.30;;;8.50;;
33740;SDS011;20065;48.380;10.892;2022-10-31T06:44:07;17.70;;;9.52;;
33740;SDS011;20065;48.380;10.892;2022-10-31T06:47:02;14.63;;;9.75;;
33740;SDS011;20065;48.380;10.892;2022-10-31T06:50:15;19.77;;;9.75;;
33740;SDS011;20065;48.380;10.892;2022-10-31T06:53:01;14.02;;;7.88;;
33740;SDS011;20065;48.380;10.892;2022-10-31T06:55:48;14.63;;;8.15;;
33740;SDS011;20065;48.380;10.892;2022-10-31T06:58:34;20.75;;;9.75;;
33740;SDS011;20065;48.380;10.892;2022-10-31T07:01:23;18.17;;;9.35;;
33740;SDS011;20065;48.380;10.892;2022-10-31T07:04:09;13.18;;;8.77;;
33740;SDS011;20065;48.380;10.892;2022-10-31T07:06:56;21.90;;;9.27;;
33740;SDS011;20065;48.380;10.892;2022-10-31T07:09:42;13.13;;;9.05;;
33740;SDS011;20065;48.380;10.892;2022-10-31T07:12:30;20.05;;;9.30;;
33740;SDS011;20065;48.380;10.892;2022-10-31T07:15:17;19.67;;;8.70;;
33740;SDS011;20065;48.380;10.892;2022-10-31T07:18:04;13.90;;;7.90;;
33740;SDS011;20065;48.380;10.892;2022-10-31T07:20:53;20.80;;;7.57;;
33740;SDS011;20065;48.380;10.892;2022-10-31T07:23:39;16.42;;;8.05;;
33740;SDS011;20065;48.380;10.892;2022-10-31T07:26:51;13.95;;;7.38;;
33740;SDS011;20065;48.380;10.892;2022-10-31T07:29:37;18.40;;;7.95;;
33740;SDS011;20065;48.380;10.892;2022-10-31T07:32:23;15.02;;;7.32;;
33740;SDS011;20065;48.380;10.892;2022-10-31T07:35:21;17.92;;;7.47;;
33740;SDS011;20065;48.380;10.892;2022-10-31T07:38:17;16.23;;;7.63;;
33740;SDS011;20065;48.380;10.892;2022-10-31T07:41:03;20.98;;;8.20;;
33740;SDS011;20065;48.380;10.892;2022-10-31T07:43:51;14.00;;;7.22;;
33740;SDS011;20065;48.380;10.892;2022-10-31T07:46:56;14.23;;;6.83;;
33740;SDS011;20065;48.380;10.892;2022-10-31T07:50:01;19.08;;;5.65;;
33740;SDS011;20065;48.380;10.892;2022-10-31T07:53:07;16.73;;;6.90;;
33740;SDS011;20065;48.380;10.892;2022-10-31T07:55:57;19.00;;;7.25;;
33740;SDS011;20065;48.380;10.892;2022-10-31T07:58:48;19.80;;;6.80;;
33740;SDS011;20065;48.380;10.892;2022-10-31T08:01:34;11.90;;;6.30;;
33740;SDS011;20065;48.380;10.892;2022-10-31T08:04:40;14.27;;;6.30;;
33740;SDS011;20065;48.380;10.892;2022-10-31T08:07:44;24.30;;;6.70;;
33740;SDS011;20065;48.380;10.892;2022-10-31T08:10:37;16.53;;;5.83;;
33740;SDS011;20065;48.380;10.892;2022-10-31T08:13:23;13.77;;;6.20;;
33740;SDS011;20065;48.380;10.892;2022-10-31T08:16:10;20.07;;;5.90;;
33740;SDS011;20065;48.380;10.892;2022-10-31T08:19:04;16.67;;;6.30;;
33740;SDS011;20065;48.380;10.892;2022-10-31T08:21:56;14.23;;;5.37;;
33740;SDS011;20065;48.380;10.892;2022-10-31T08:24:42;10.23;;;5.70;;
33740;SDS011;20065;48.380;10.892;2022-10-31T08:27:30;15.23;;;5.73;;
33740;SDS011;20065;48.380;10.892;2022-10-31T08:30:19;21.80;;;5.57;;
33740;SDS011;20065;48.380;10.892;2022-10-31T08:33:25;19.97;;;6.37;;
33740;SDS011;20065;48.380;10.892;2022-10-31T08:36:30;14.60;;;5.97;;
33740;SDS011;20065;48.380;10.892;2022-10-31T08:39:27;14.87;;;5.23;;
33740;SDS011;20065;48.380;10.892;2022-10-31T08:42:14;14.50;;;5.53;;
33740;SDS011;20065;48.380;10.892;2022-10-31T08:45:00;14.17;;;6.03;;
33740;SDS011;20065;48.380;10.892;2022-10-31T08:47:47;14.80;;;5.90;;
33740;SDS011;20065;48.380;10.892;2022-10-31T08:50:33;15.33;;;5.10;;
33740;SDS011;20065;48.380;10.892;2022-10-31T08:53:20;13.27;;;6.13;;
33740;SDS011;20065;48.380;10.892;2022-10-31T08:56:17;10.57;;;5.70;;
33740;SDS011;20065;48.380;10.892;2022-10-31T08:59:04;15.63;;;5.37;;
33740;SDS011;20065;48.380;10.892;2022-10-31T09:02:02;12.87;;;5.77;;
33740;SDS011;20065;48.380;10.892;2022-10-31T09:04:49;12.47;;;6.00;;
33740;SDS011;20065;48.380;10.892;2022-10-31T09:07:36;15.47;;;6.30;;
33740;SDS011;20065;48.380;10.892;2022-10-31T09:10:23;11.80;;;6.30;;
33740;SDS011;20065;48.380;10.892;2022-10-31T09:13:10;15.83;;;6.17;;
33740;SDS011;20065;48.380;10.892;2022-10-31T09:16:24;12.20;;;7.17;;
33740;SDS011;20065;48.380;10.892;2022-10-31T09:19:11;14.50;;;8.43;;
33740;SDS011;20065;48.380;10.892;2022-10-31T09:21:57;14.43;;;8.00;;
33740;SDS011;20065;48.380;10.892;2022-10-31T09:24:43;19.00;;;8.20;;
33740;SDS011;20065;48.380;10.892;2022-10-31T09:27:29;16.13;;;9.10;;
33740;SDS011;20065;48.380;10.892;2022-10-31T09:30:16;19.30;;;8.50;;
33740;SDS011;20065;48.380;10.892;2022-10-31T09:33:03;18.13;;;8.50;;
33740;SDS011;20065;48.380;10.892;2022-10-31T09:35:52;17.00;;;9.50;;
33740;SDS011;20065;48.380;10.892;2022-10-31T09:38:39;19.47;;;10.20;;
33740;SDS011;20065;48.380;10.892;2022-10-31T09:51:07;17.37;;;10.07;;
33740;SDS011;20065;48.380;10.892;2022-10-31T09:54:15;28.07;;;9.97;;
33740;SDS011;20065;48.380;10.892;2022-10-31T09:57:15;19.67;;;10.00;;
33740;SDS011;20065;48.380;10.892;2022-10-31T10:00:14;17.27;;;10.10;;
33740;SDS011;20065;48.380;10.892;2022-10-31T10:03:06;20.23;;;9.20;;
33740;SDS011;20065;48.380;10.892;2022-10-31T10:09:22;24.10;;;10.83;;
33740;SDS011;20065;48.380;10.892;2022-10-31T10:15:33;21.20;;;10.37;;
33740;SDS011;20065;48.380;10.892;2022-10-31T10:21:36;21.60;;;10.40;;
33740;SDS011;20065;48.380;10.892;2022-10-31T10:30:44;23.47;;;11.77;;
33740;SDS011;20065;48.380;10.892;2022-10-31T10:34:39;22.93;;;12.97;;
33740;SDS011;20065;48.380;10.892;2022-10-31T10:37:01;24.80;;;12.53;;
33740;SDS011;20065;48.380;10.892;2022-10-31T10:40:17;23.93;;;13.80;;
33740;SDS011;20065;48.380;10.892;2022-10-31T10:43:24;25.80;;;13.33;;
33740;SDS011;20065;48.380;10.892;2022-10-31T10:46:44;20.17;;;13.57;;
33740;SDS011;20065;48.380;10.892;2022-10-31T10:49:55;24.17;;;14.63;;
33740;SDS011;20065;48.380;10.892;2022-10-31T10:52:53;18.77;;;13.20;;
33740;SDS011;20065;48.380;10.892;2022-10-31T10:56:16;20.40;;;14.30;;
33740;SDS011;20065;48.380;10.892;2022-10-31T10:59:11;29.70;;;13.70;;
33740;SDS011;20065;48.380;10.892;2022-10-31T11:02:08;22.70;;;13.90;;
33740;SDS011;20065;48.380;10.892;2022-10-31T11:05:02;26.63;;;14.77;;
33740;SDS011;20065;48.380;10.892;2022-10-31T11:07:57;25.50;;;15.20;;
33740;SDS011;20065;48.380;10.892;2022-10-31T11:10:44;21.80;;;14.20;;
33740;SDS011;20065;48.380;10.892;2022-10-31T11:13:39;30.83;;;15.60;;
33740;SDS011;20065;48.380;10.892;2022-10-31T11:19:15;23.20;;;15.60;;
33740;SDS011;20065;48.380;10.892;2022-10-31T11:22:08;32.87;;;17.87;;
33740;SDS011;20065;48.380;10.892;2022-10-31T11:25:11;22.07;;;15.50;;
33740;SDS011;20065;48.380;10.892;2022-10-31T11:28:07;23.87;;;15.17;;
33740;SDS011;20065;48.380;10.892;2022-10-31T11:30:56;21.47;;;14.90;;
33740;SDS011;20065;48.380;10.892;2022-10-31T11:33:46;25.03;;;15.73;;
33740;SDS011;20065;48.380;10.892;2022-10-31T11:36:35;22.90;;;14.43;;
33740;SDS011;20065;48.380;10.892;2022-10-31T11:39:26;24.53;;;16.17;;
33740;SDS011;20065;48.380;10.892;2022-10-31T11:42:12;27.80;;;16.73;;
33740;SDS011;20065;48.380;10.892;2022-10-31T11:44:59;22.43;;;14.87;;
33740;SDS011;20065;48.380;10.892;2022-10-31T11:47:53;24.40;;;16.90;;
33740;SDS011;20065;48.380;10.892;2022-10-31T11:50:42;26.70;;;16.93;;
33740;SDS011;20065;48.380;10.892;2022-10-31T11:53:35;21.20;;;15.80;;
33740;SDS011;20065;48.380;10.892;2022-10-31T11:56:23;20.20;;;15.30;;
33740;SDS011;20065;48.380;10.892;2022-10-31T11:59:29;20.77;;;14.47;;
33740;SDS011;20065;48.380;10.892;2022-10-31T12:02:17;25.43;;;16.10;;
33740;SDS011;20065;48.380;10.892;2022-10-31T12:05:08;24.30;;;16.27;;
33740;SDS011;20065;48.380;10.892;2022-10-31T12:08:14;26.53;;;15.70;;
33740;SDS011;20065;48.380;10.892;2022-10-31T12:17:08;23.90;;;16.77;;
33740;SDS011;20065;48.380;10.892;2022-10-31T12:29:23;26.47;;;16.10;;
33740;SDS011;20065;48.380;10.892;2022-10-31T12:32:34;28.43;;;17.83;;
33740;SDS011;20065;48.380;10.892;2022-10-31T12:35:35;22.93;;;16.60;;
33740;SDS011;20065;48.380;10.892;2022-10-31T12:41:41;25.77;;;16.30;;
33740;SDS011;20065;48.380;10.892;2022-10-31T12:44:38;25.57;;;16.80;;
33740;SDS011;20065;48.380;10.892;2022-10-31T13:00:27;26.73;;;16.03;;
33740;SDS011;20065;48.380;10.892;2022-10-31T13:03:25;23.27;;;16.70;;
33740;SDS011;20065;48.380;10.892;2022-10-31T13:06:18;27.43;;;16.63;;
33740;SDS011;20065;48.380;10.892;2022-10-31T13:09:08;23.50;;;16.90;;
33740;SDS011;20065;48.380;10.892;2022-10-31T13:12:10;25.73;;;17.57;;
33740;SDS011;20065;48.380;10.892;2022-10-31T13:15:03;24.93;;;17.13;;
33740;SDS011;20065;48.380;10.892;2022-10-31T13:18:11;19.77;;;16.27;;
33740;SDS011;20065;48.380;10.892;2022-10-31T13:21:11;22.93;;;16.83;;
33740;SDS011;20065;48.380;10.892;2022-10-31T13:24:04;24.60;;;17.50;;
33740;SDS011;20065;48.380;10.892;2022-10-31T13:26:58;23.23;;;17.13;;
33740;SDS011;20065;48.380;10.892;2022-10-31T13:35:52;22.30;;;16.93;;
33740;SDS011;20065;48.380;10.892;2022-10-31T13:38:54;24.43;;;17.30;;
33740;SDS011;20065;48.380;10.892;2022-10-31T13:41:49;22.30;;;16.53;;
33740;SDS011;20065;48.380;10.892;2022-10-31T13:44:45;28.10;;;17.03;;
33740;SDS011;20065;48.380;10.892;2022-10-31T13:47:32;22.70;;;15.43;;
33740;SDS011;20065;48.380;10.892;2022-10-31T13:50:26;23.53;;;15.90;;
33740;SDS011;20065;48.380;10.892;2022-10-31T13:59:00;20.10;;;16.87;;
33740;SDS011;20065;48.380;10.892;2022-10-31T14:01:47;22.50;;;17.90;;
33740;SDS011;20065;48.380;10.892;2022-10-31T14:04:55;26.17;;;17.77;;
33740;SDS011;20065;48.380;10.892;2022-10-31T14:07:46;29.00;;;18.83;;
33740;SDS011;20065;48.380;10.892;2022-10-31T14:10:35;23.07;;;17.47;;
33740;SDS011;20065;48.380;10.892;2022-10-31T14:13:26;22.63;;;17.43;;
33740;SDS011;20065;48.380;10.892;2022-10-31T14:16:22;21.90;;;17.97;;
33740;SDS011;20065;48.380;10.892;2022-10-31T14:19:17;23.00;;;18.60;;
33740;SDS011;20065;48.380;10.892;2022-10-31T14:22:18;20.47;;;17.10;;
33740;SDS011;20065;48.380;10.892;2022-10-31T14:28:21;22.77;;;17.00;;
33740;SDS011;20065;48.380;10.892;2022-10-31T14:31:37;24.17;;;17.47;;
33740;SDS011;20065;48.380;10.892;2022-10-31T14:37:32;24.40;;;17.40;;
33740;SDS011;20065;48.380;10.892;2022-10-31T14:53:00;23.10;;;18.27;;
33740;SDS011;20065;48.380;10.892;2022-10-31T14:55:51;23.40;;;19.80;;
33740;SDS011;20065;48.380;10.892;2022-10-31T14:58:43;29.00;;;20.20;;
33740;SDS011;20065;48.380;10.892;2022-10-31T15:01:32;28.50;;;19.27;;
33740;SDS011;20065;48.380;10.892;2022-10-31T15:04:23;22.23;;;17.30;;
33740;SDS011;20065;48.380;10.892;2022-10-31T15:07:19;22.70;;;18.67;;
33740;SDS011;20065;48.380;10.892;2022-10-31T15:10:21;23.10;;;18.70;;
33740;SDS011;20065;48.380;10.892;2022-10-31T15:13:22;22.00;;;18.07;;
33740;SDS011;20065;48.380;10.892;2022-10-31T15:16:08;24.90;;;19.00;;
33740;SDS011;20065;48.380;10.892;2022-10-31T15:18:59;23.03;;;18.27;;
33740;SDS011;20065;48.380;10.892;2022-10-31T15:21:49;21.77;;;16.90;;
33740;SDS011;20065;48.380;10.892;2022-10-31T15:24:38;23.13;;;18.70;;
33740;SDS011;20065;48.380;10.892;2022-10-31T15:27:24;25.20;;;19.50;;
33740;SDS011;20065;48.380;10.892;2022-10-31T15:30:18;25.37;;;16.97;;
33740;SDS011;20065;48.380;10.892;2022-10-31T15:33:24;21.83;;;17.30;;
33740;SDS011;20065;48.380;10.892;2022-10-31T15:36:18;24.03;;;18.13;;
33740;SDS011;20065;48.380;10.892;2022-10-31T15:39:10;22.63;;;17.50;;
33740;SDS011;20065;48.380;10.892;2022-10-31T15:41:57;24.33;;;17.80;;
33740;SDS011;20065;48.380;10.892;2022-10-31T15:44:44;24.90;;;18.37;;
33740;SDS011;20065;48.380;10.892;2022-10-31T15:47:37;24.20;;;18.03;;
33740;SDS011;20065;48.380;10.892;2022-10-31T15:50:38;25.43;;;17.43;;
33740;SDS011;20065;48.380;10.892;2022-10-31T15:53:30;25.10;;;17.60;;
33740;SDS011;20065;48.380;10.892;2022-10-31T15:56:23;21.77;;;16.87;;
33740;SDS011;20065;48.380;10.892;2022-10-31T15:59:15;23.73;;;19.70;;
33740;SDS011;20065;48.380;10.892;2022-10-31T16:02:10;23.80;;;18.80;;
33740;SDS011;20065;48.380;10.892;2022-10-31T16:04:59;24.00;;;17.90;;
33740;SDS011;20065;48.380;10.892;2022-10-31T16:07:50;26.07;;;18.83;;
33740;SDS011;20065;48.380;10.892;2022-10-31T16:10:37;28.17;;;19.10;;
33740;SDS011;20065;48.380;10.892;2022-10-31T16:13:26;24.50;;;19.90;;
33740;SDS011;20065;48.380;10.892;2022-10-31T16:16:14;23.50;;;18.93;;
33740;SDS011;20065;48.380;10.892;2022-10-31T16:19:03;29.87;;;21.33;;
33740;SDS011;20065;48.380;10.892;2022-10-31T16:21:52;27.63;;;20.83;;
33740;SDS011;20065;48.380;10.892;2022-10-31T16:27:47;26.20;;;20.53;;
33740;SDS011;20065;48.380;10.892;2022-10-31T16:30:36;26.10;;;20.10;;
33740;SDS011;20065;48.380;10.892;2022-10-31T16:33:28;29.43;;;22.37;;
33740;SDS011;20065;48.380;10.892;2022-10-31T16:39:16;28.43;;;22.93;;
33740;SDS011;20065;48.380;10.892;2022-10-31T16:42:02;29.83;;;22.40;;
33740;SDS011;20065;48.380;10.892;2022-10-31T16:44:49;29.27;;;23.20;;
33740;SDS011;20065;48.380;10.892;2022-10-31T16:50:27;36.80;;;24.20;;
33740;SDS011;20065;48.380;10.892;2022-10-31T16:53:13;30.50;;;22.90;;
33740;SDS011;20065;48.380;10.892;2022-10-31T16:56:03;28.77;;;23.80;;
33740;SDS011;20065;48.380;10.892;2022-10-31T16:58:50;26.30;;;21.80;;
33740;SDS011;20065;48.380;10.892;2022-10-31T17:01:37;24.93;;;22.27;;
33740;SDS011;20065;48.380;10.892;2022-10-31T17:04:25;24.80;;;21.20;;
33740;SDS011;20065;48.380;10.892;2022-10-31T17:07:11;26.00;;;21.50;;
33740;SDS011;20065;48.380;10.892;2022-10-31T17:09:57;23.93;;;19.40;;
33740;SDS011;20065;48.380;10.892;2022-10-31T17:12:44;23.00;;;19.43;;
33740;SDS011;20065;48.380;10.892;2022-10-31T17:15:37;23.13;;;19.23;;
33740;SDS011;20065;48.380;10.892;2022-10-31T17:18:30;20.67;;;17.87;;
33740;SDS011;20065;48.380;10.892;2022-10-31T17:21:20;20.30;;;18.03;;
33740;SDS011;20065;48.380;10.892;2022-10-31T17:24:12;22.23;;;18.23;;
33740;SDS011;20065;48.380;10.892;2022-10-31T17:26:59;20.67;;;18.47;;
33740;SDS011;20065;48.380;10.892;2022-10-31T17:29:46;20.33;;;17.73;;
33740;SDS011;20065;48.380;10.892;2022-10-31T17:32:33;20.10;;;17.80;;
33740;SDS011;20065;48.380;10.892;2022-10-31T17:35:19;19.50;;;17.27;;
33740;SDS011;20065;48.380;10.892;2022-10-31T17:38:06;19.70;;;17.50;;
33740;SDS011;20065;48.380;10.892;2022-10-31T17:40:54;19.87;;;17.77;;
33740;SDS011;20065;48.380;10.892;2022-10-31T17:43:40;21.83;;;18.67;;
33740;SDS011;20065;48.380;10.892;2022-10-31T17:46:26;20.93;;;18.23;;
33740;SDS011;20065;48.380;10.892;2022-10-31T17:49:13;19.10;;;17.00;;
33740;SDS011;20065;48.380;10.892;2022-10-31T17:51:59;20.03;;;17.93;;
33740;SDS011;20065;48.380;10.892;2022-10-31T17:54:46;21.83;;;17.97;;
33740;SDS011;20065;48.380;10.892;2022-10-31T17:57:32;21.83;;;17.90;;
33740;SDS011;20065;48.380;10.892;2022-10-31T18:00:20;20.77;;;18.47;;
33740;SDS011;20065;48.380;10.892;2022-10-31T18:03:08;21.07;;;18.30;;
33740;SDS011;20065;48.380;10.892;2022-10-31T18:05:55;26.60;;;20.83;;
33740;SDS011;20065;48.380;10.892;2022-10-31T18:08:43;23.17;;;19.63;;
33740;SDS011;20065;48.380;10.892;2022-10-31T18:11:30;25.10;;;19.30;;
33740;SDS011;20065;48.380;10.892;2022-10-31T18:14:17;23.57;;;19.03;;
33740;SDS011;20065;48.380;10.892;2022-10-31T18:17:03;29.00;;;19.97;;
33740;SDS011;20065;48.380;10.892;2022-10-31T18:19:52;22.37;;;19.97;;
33740;SDS011;20065;48.380;10.892;2022-10-31T18:22:39;24.50;;;20.87;;
33740;SDS011;20065;48.380;10.892;2022-10-31T18:25:25;22.87;;;19.40;;
33740;SDS011;20065;48.380;10.892;2022-10-31T18:28:11;37.27;;;21.33;;
33740;SDS011;20065;48.380;10.892;2022-10-31T18:30:58;30.63;;;20.20;;
33740;SDS011;20065;48.380;10.892;2022-10-31T18:33:45;27.57;;;20.80;;
33740;SDS011;20065;48.380;10.892;2022-10-31T18:36:31;36.83;;;22.30;;
33740;SDS011;20065;48.380;10.892;2022-10-31T18:39:18;225.13;;;30.33;;
33740;SDS011;20065;48.380;10.892;2022-10-31T18:42:04;46.33;;;31.47;;